createdAt,value
2022-12-29T00:01:02.839Z,97925.97
2022-12-29T00:03:30.438Z,97921.66
2022-12-29T00:05:59.443Z,97918.34
2022-12-29T00:08:42.229Z,97904.13
2022-12-29T00:11:12.162Z,97909.16
2022-12-29T00:13:58.274Z,97895.94
2022-12-29T00:16:25.913Z,97899.81
2022-12-29T00:18:53.721Z,97887.41
2022-12-29T00:21:41.587Z,97887.00
2022-12-29T00:24:27.855Z,97880.06
2022-12-29T00:27:19.055Z,97881.03
2022-12-29T00:30:05.103Z,97871.72
2022-12-29T00:32:50.966Z,97876.28
2022-12-29T00:35:34.579Z,97874.34
2022-12-29T00:38:23.651Z,97869.72
2022-12-29T00:41:09.459Z,97868.06
2022-12-29T00:43:55.391Z,97874.59
2022-12-29T00:46:22.895Z,97866.66
2022-12-29T00:49:08.889Z,97866.25
2022-12-29T00:51:36.284Z,97868.63
2022-12-29T00:54:03.802Z,97862.91
2022-12-29T00:56:31.221Z,97865.13
2022-12-29T00:59:02.598Z,97872.94
2022-12-29T01:01:30.695Z,97864.44
2022-12-29T01:04:02.200Z,97870.72
2022-12-29T01:06:33.073Z,97862.91
2022-12-29T01:09:19.119Z,97872.13
2022-12-29T01:11:46.557Z,97866.84
2022-12-29T01:14:14.086Z,97871.41
2022-12-29T01:16:41.500Z,97875.44
2022-12-29T01:19:08.996Z,97877.13
2022-12-29T01:21:36.516Z,97877.41
2022-12-29T01:24:04.087Z,97875.44
2022-12-29T01:26:31.504Z,97877.13
2022-12-29T01:28:59.016Z,97887.84
2022-12-29T01:31:26.448Z,97885.91
2022-12-29T01:33:54.709Z,97885.34
2022-12-29T01:36:22.046Z,97887.59
2022-12-29T01:38:49.716Z,97891.06
2022-12-29T01:41:17.851Z,97888.41
2022-12-29T01:43:52.777Z,97888.25
2022-12-29T01:46:41.245Z,97895.53
2022-12-29T01:49:13.098Z,97889.53
2022-12-29T01:51:54.355Z,97888.00
2022-12-29T01:54:29.440Z,97879.06
2022-12-29T01:57:00.683Z,97876.84
2022-12-29T01:59:34.250Z,97879.06
2022-12-29T02:02:01.981Z,97883.66
2022-12-29T02:04:32.569Z,97884.47
2022-12-29T02:07:08.101Z,97869.31
2022-12-29T02:09:36.989Z,97881.59
2022-12-29T02:12:04.543Z,97875.00
2022-12-29T02:14:31.971Z,97885.75
2022-12-29T02:17:08.345Z,97871.94
2022-12-29T02:19:56.704Z,97870.97
2022-12-29T02:23:15.363Z,97860.66
2022-12-29T02:26:12.818Z,97855.66
2022-12-29T02:28:53.404Z,97862.88
2022-12-29T02:31:29.795Z,97855.53
2022-12-29T02:34:17.611Z,97852.03
2022-12-29T02:37:09.280Z,97857.47
2022-12-29T02:39:53.204Z,97856.06
2022-12-29T02:42:20.495Z,97856.06
2022-12-29T02:44:50.646Z,97855.53
2022-12-29T02:47:32.042Z,97851.34
2022-12-29T02:50:08.483Z,97861.53
2022-12-29T02:52:48.013Z,97852.72
2022-12-29T02:55:15.470Z,97843.25
2022-12-29T02:57:43.041Z,97849.81
2022-12-29T03:00:16.726Z,97848.13
2022-12-29T03:02:57.737Z,97848.41
2022-12-29T03:05:43.330Z,97852.84
2022-12-29T03:08:21.040Z,97854.81
2022-12-29T03:10:54.326Z,97847.84
2022-12-29T03:14:00.948Z,97847.25
2022-12-29T03:16:47.726Z,97847.25
2022-12-29T03:19:36.530Z,97838.50
2022-12-29T03:22:25.561Z,97840.56
2022-12-29T03:25:11.594Z,97843.50
2022-12-29T03:27:44.472Z,97843.22
2022-12-29T03:30:12.286Z,97843.34
2022-12-29T03:32:55.541Z,97828.97
2022-12-29T03:35:27.259Z,97830.22
2022-12-29T03:38:24.487Z,97832.03
2022-12-29T03:40:54.010Z,97822.44
2022-12-29T03:43:21.857Z,97824.66
2022-12-29T03:45:49.905Z,97828.59
2022-12-29T03:48:17.330Z,97824.94
2022-12-29T03:50:46.121Z,97821.38
2022-12-29T03:53:13.529Z,97824.13
2022-12-29T03:55:41.200Z,97817.13
2022-12-29T03:58:08.827Z,97821.31
2022-12-29T04:00:55.301Z,97803.22
2022-12-29T04:03:23.518Z,97809.75
2022-12-29T04:05:51.777Z,97812.84
2022-12-29T04:08:19.222Z,97819.69
2022-12-29T04:10:46.662Z,97822.91
2022-12-29T04:13:16.727Z,97817.75
2022-12-29T04:15:46.369Z,97813.28
2022-12-29T04:18:14.325Z,97811.47
2022-12-29T04:21:00.668Z,97819.16
2022-12-29T04:23:30.521Z,97822.06
2022-12-29T04:25:58.230Z,97823.03
2022-12-29T04:28:26.688Z,97825.13
2022-12-29T04:31:11.051Z,97843.00
2022-12-29T04:33:41.540Z,97842.56
2022-12-29T04:36:09.085Z,97836.00
2022-12-29T04:38:38.254Z,97841.31
2022-12-29T04:41:06.445Z,97829.59
2022-12-29T04:43:36.372Z,97840.47
2022-12-29T04:46:39.276Z,97835.56
2022-12-29T04:49:11.020Z,97829.97
2022-12-29T04:51:52.824Z,97828.72
2022-12-29T04:54:20.720Z,97821.78
2022-12-29T04:56:55.919Z,97815.00
2022-12-29T04:59:24.874Z,97819.84
2022-12-29T05:01:55.916Z,97816.78
2022-12-29T05:04:23.456Z,97823.59
2022-12-29T05:06:50.790Z,97818.88
2022-12-29T05:09:18.766Z,97817.78
2022-12-29T05:11:46.310Z,97810.81
2022-12-29T05:14:13.859Z,97816.38
2022-12-29T05:16:42.158Z,97820.41
2022-12-29T05:19:10.701Z,97801.88
2022-12-29T05:21:38.719Z,97808.19
2022-12-29T05:24:06.492Z,97799.66
2022-12-29T05:26:33.874Z,97803.72
2022-12-29T05:29:07.698Z,97801.34
2022-12-29T05:31:36.639Z,97796.22
2022-12-29T05:34:05.410Z,97795.38
2022-12-29T05:36:37.448Z,97793.13
2022-12-29T05:39:06.363Z,97787.97
2022-12-29T05:41:35.279Z,97809.44
2022-12-29T05:44:25.440Z,97811.81
2022-12-29T05:47:12.914Z,97822.66
2022-12-29T05:49:46.655Z,97812.78
2022-12-29T05:52:32.656Z,97814.59
2022-12-29T05:55:01.051Z,97814.31
2022-12-29T05:57:31.037Z,97809.97
2022-12-29T06:00:12.226Z,97811.97
2022-12-29T06:02:42.897Z,97812.50
2022-12-29T06:05:11.077Z,97821.97
2022-12-29T06:07:40.064Z,97814.72
2022-12-29T06:10:08.106Z,97808.19
2022-12-29T06:12:58.683Z,97802.72
2022-12-29T06:15:26.135Z,97791.88
2022-12-29T06:17:54.869Z,97790.09
2022-12-29T06:20:23.641Z,97785.34
2022-12-29T06:22:51.287Z,97799.41
2022-12-29T06:25:18.988Z,97802.31
2022-12-29T06:27:46.442Z,97794.69
2022-12-29T06:30:14.367Z,97809.03
2022-12-29T06:32:42.574Z,97805.69
2022-12-29T06:35:12.498Z,97797.59
2022-12-29T06:37:45.551Z,97803.56
2022-12-29T06:40:13.352Z,97806.63
2022-12-29T06:43:00.961Z,97810.56
2022-12-29T06:45:56.488Z,97808.59
2022-12-29T06:48:23.955Z,97807.31
2022-12-29T06:50:51.391Z,97801.06
2022-12-29T06:53:18.753Z,97808.00
2022-12-29T06:55:46.128Z,97782.22
2022-12-29T06:58:13.597Z,97812.31
2022-12-29T07:00:41.004Z,97801.53
2022-12-29T07:03:08.489Z,97798.75
2022-12-29T07:05:35.932Z,97799.88
2022-12-29T07:08:03.272Z,97800.19
2022-12-29T07:10:30.714Z,97799.47
2022-12-29T07:12:58.154Z,97798.72
2022-12-29T07:15:25.493Z,97793.31
2022-12-29T07:17:52.915Z,97807.84
2022-12-29T07:20:26.286Z,97802.66
2022-12-29T07:22:54.426Z,97807.13
2022-12-29T07:25:21.967Z,97802.09
2022-12-29T07:27:49.663Z,97799.59
2022-12-29T07:30:17.556Z,97792.63
2022-12-29T07:32:44.940Z,97793.44
2022-12-29T07:35:12.276Z,97805.28
2022-12-29T07:37:39.653Z,97802.78
2022-12-29T07:40:07.798Z,97798.31
2022-12-29T07:42:35.144Z,97805.00
2022-12-29T07:45:02.579Z,97798.41
2022-12-29T07:47:36.877Z,97810.41
2022-12-29T07:50:04.821Z,97803.13
2022-12-29T07:52:32.175Z,97808.84
2022-12-29T07:54:59.534Z,97792.94
2022-12-29T07:57:31.760Z,97798.50
2022-12-29T08:00:00.010Z,97805.97
2022-12-29T08:02:27.768Z,97813.22
2022-12-29T08:04:55.367Z,97805.03
2022-12-29T08:07:22.810Z,97809.09
2022-12-29T08:09:50.204Z,97813.38
2022-12-29T08:12:17.676Z,97828.47
2022-12-29T08:14:45.074Z,97822.47
2022-12-29T08:17:12.466Z,97817.41
2022-12-29T08:19:40.178Z,97820.78
2022-12-29T08:22:07.574Z,97824.00
2022-12-29T08:24:34.930Z,97827.03
2022-12-29T08:27:11.818Z,97833.72
2022-12-29T08:29:43.446Z,97834.00
2022-12-29T08:32:10.966Z,97835.56
2022-12-29T08:34:38.344Z,97846.97
2022-12-29T08:37:05.662Z,97834.94
2022-12-29T08:39:32.994Z,97832.72
2022-12-29T08:42:00.664Z,97838.47
2022-12-29T08:44:27.756Z,97827.50
2022-12-29T08:46:54.900Z,97829.19
2022-12-29T08:49:21.935Z,97839.06
2022-12-29T08:51:48.959Z,97824.69
2022-12-29T08:54:15.908Z,97822.31
2022-12-29T08:56:42.916Z,97828.47
2022-12-29T08:59:09.913Z,97837.41
2022-12-29T09:01:41.368Z,97832.63
2022-12-29T09:04:17.605Z,97836.50
2022-12-29T09:06:46.258Z,97840.84
2022-12-29T09:09:14.090Z,97855.44
2022-12-29T09:11:42.251Z,97848.28
2022-12-29T09:14:09.305Z,97844.78
2022-12-29T09:16:37.085Z,97851.41
2022-12-29T09:19:04.278Z,97851.47
2022-12-29T09:21:31.295Z,97859.97
2022-12-29T09:23:58.335Z,97847.53
2022-12-29T09:26:25.282Z,97872.69
2022-12-29T09:28:52.299Z,97866.56
2022-12-29T09:31:19.386Z,97871.91
2022-12-29T09:33:46.559Z,97874.00
2022-12-29T09:36:13.608Z,97873.44
2022-12-29T09:38:40.598Z,97875.84
2022-12-29T09:41:23.492Z,97862.13
2022-12-29T09:44:07.653Z,97861.75
2022-12-29T09:46:49.044Z,97861.31
2022-12-29T09:49:43.337Z,97863.28
2022-12-29T09:52:33.811Z,97865.09
2022-12-29T09:55:13.789Z,97858.34
2022-12-29T09:57:50.138Z,97859.72
2022-12-29T10:00:24.111Z,97853.00
2022-12-29T10:03:04.128Z,97859.13
2022-12-29T10:05:50.968Z,97848.06
2022-12-29T10:08:41.093Z,97854.06
2022-12-29T10:11:36.981Z,97855.38
2022-12-29T10:14:22.231Z,97850.81
2022-12-29T10:17:06.218Z,97852.66
2022-12-29T10:19:48.690Z,97848.75
2022-12-29T10:22:29.453Z,97848.56
2022-12-29T10:25:03.595Z,97849.13
2022-12-29T10:27:34.012Z,97846.78
2022-12-29T10:30:03.573Z,97853.53
2022-12-29T10:32:39.717Z,97853.88
2022-12-29T10:35:17.488Z,97864.59
2022-12-29T10:37:58.215Z,97864.44
2022-12-29T10:40:48.379Z,97850.19
2022-12-29T10:43:33.700Z,97848.97
2022-12-29T10:46:06.502Z,97841.81
2022-12-29T10:48:36.305Z,97852.13
2022-12-29T10:51:09.533Z,97848.19
2022-12-29T10:54:00.844Z,97842.50
2022-12-29T10:56:47.320Z,97839.41
2022-12-29T10:59:28.932Z,97847.28
2022-12-29T11:02:07.818Z,97841.16
2022-12-29T11:05:06.271Z,97840.66
2022-12-29T11:07:33.411Z,97846.53
2022-12-29T11:10:22.624Z,97860.16
2022-12-29T11:13:02.992Z,97843.53
2022-12-29T11:15:51.034Z,97837.56
2022-12-29T11:18:47.812Z,97838.97
2022-12-29T11:21:43.115Z,97839.66
2022-12-29T11:24:45.977Z,97844.81
2022-12-29T11:27:25.707Z,97847.06
2022-12-29T11:29:55.017Z,97845.16
2022-12-29T11:32:28.871Z,97837.09
2022-12-29T11:34:59.758Z,97840.59
2022-12-29T11:37:40.705Z,97845.75
2022-12-29T11:40:21.832Z,97854.84
2022-12-29T11:42:57.569Z,97842.50
2022-12-29T11:45:28.212Z,97842.19
2022-12-29T11:48:00.289Z,97848.19
2022-12-29T11:50:34.308Z,97837.50
2022-12-29T11:53:45.216Z,97838.47
2022-12-29T11:56:17.591Z,97841.16
2022-12-29T11:58:45.109Z,97832.28
2022-12-29T12:01:22.145Z,97840.53
2022-12-29T12:04:04.439Z,97848.72
2022-12-29T12:06:41.771Z,97850.75
2022-12-29T12:09:48.470Z,97842.41
2022-12-29T12:12:47.441Z,97845.72
2022-12-29T12:15:32.932Z,97845.28
2022-12-29T12:18:24.132Z,97845.97
2022-12-29T12:21:02.179Z,97832.69
2022-12-29T12:24:04.912Z,97844.09
2022-12-29T12:26:45.134Z,97861.41
2022-12-29T12:29:21.996Z,97858.47
2022-12-29T12:31:58.403Z,97855.03
2022-12-29T12:34:39.404Z,97862.88
2022-12-29T12:37:46.604Z,97861.22
2022-12-29T12:40:50.081Z,97855.94
2022-12-29T12:43:29.443Z,97847.44
2022-12-29T12:46:33.023Z,97848.41
2022-12-29T12:49:18.289Z,97827.75
2022-12-29T12:52:05.959Z,97834.59
2022-12-29T12:54:51.175Z,97836.38
2022-12-29T12:58:21.096Z,97830.53
2022-12-29T13:01:19.943Z,97820.31
2022-12-29T13:04:17.836Z,97818.53
2022-12-29T13:07:08.803Z,97813.22
2022-12-29T13:09:44.690Z,97813.47
2022-12-29T13:12:27.256Z,97807.41
2022-12-29T13:15:07.689Z,97819.25
2022-12-29T13:17:58.800Z,97815.78
2022-12-29T13:20:44.815Z,97820.41
2022-12-29T13:23:32.906Z,97816.91
2022-12-29T13:26:22.232Z,97823.19
2022-12-29T13:29:30.718Z,97810.03
2022-12-29T13:32:29.924Z,97815.44
2022-12-29T13:35:12.492Z,97802.75
2022-12-29T13:38:24.224Z,97805.69
2022-12-29T13:41:05.075Z,97801.78
2022-12-29T13:43:35.490Z,97808.22
2022-12-29T13:46:26.034Z,97805.56
2022-12-29T13:48:59.727Z,97813.81
2022-12-29T13:51:28.592Z,97801.16
2022-12-29T13:54:13.626Z,97806.56
2022-12-29T13:57:24.140Z,97805.06
2022-12-29T14:00:19.633Z,97811.47
2022-12-29T14:02:46.765Z,97810.78
2022-12-29T14:05:22.639Z,97807.97
2022-12-29T14:08:04.594Z,97805.19
2022-12-29T14:10:51.763Z,97806.44
2022-12-29T14:13:24.853Z,97802.69
2022-12-29T14:15:59.923Z,97802.28
2022-12-29T14:18:30.612Z,97809.53
2022-12-29T14:21:23.699Z,97804.22
2022-12-29T14:23:52.315Z,97816.47
2022-12-29T14:26:36.434Z,97819.69
2022-12-29T14:29:25.335Z,97821.69
2022-12-29T14:31:53.662Z,97819.03
2022-12-29T14:34:28.277Z,97819.47
2022-12-29T14:37:03.610Z,97823.06
2022-12-29T14:39:44.031Z,97824.63
2022-12-29T14:42:11.007Z,97833.16
2022-12-29T14:44:49.812Z,97827.84
2022-12-29T14:47:31.819Z,97828.16
2022-12-29T14:50:14.029Z,97828.16
2022-12-29T14:52:52.998Z,97834.53
2022-12-29T14:55:37.616Z,97826.59
2022-12-29T14:58:14.082Z,97826.88
2022-12-29T15:00:42.739Z,97829.97
2022-12-29T15:03:18.543Z,97821.19
2022-12-29T15:05:50.688Z,97828.72
2022-12-29T15:08:25.913Z,97829.97
2022-12-29T15:11:00.166Z,97819.94
2022-12-29T15:13:37.698Z,97828.59
2022-12-29T15:16:06.048Z,97828.84
2022-12-29T15:18:34.391Z,97820.91
2022-12-29T15:21:08.009Z,97821.47
2022-12-29T15:23:38.503Z,97817.72
2022-12-29T15:26:08.340Z,97817.72
2022-12-29T15:28:43.796Z,97815.34
2022-12-29T15:31:29.472Z,97822.59
2022-12-29T15:34:12.986Z,97817.13
2022-12-29T15:36:42.490Z,97829.72
2022-12-29T15:39:30.592Z,97829.97
2022-12-29T15:42:06.416Z,97826.78
2022-12-29T15:44:41.216Z,97832.59
2022-12-29T15:47:20.718Z,97836.25
2022-12-29T15:49:54.395Z,97835.94
2022-12-29T15:52:23.594Z,97834.03
2022-12-29T15:54:52.811Z,97903.72
2022-12-29T15:57:24.898Z,97932.31
2022-12-29T15:59:52.780Z,97918.22
2022-12-29T16:02:20.271Z,97906.19
2022-12-29T16:05:15.910Z,97901.81
2022-12-29T16:07:41.693Z,97897.09
2022-12-29T16:10:30.148Z,97897.72
2022-12-29T16:13:11.872Z,97892.38
2022-12-29T16:15:39.249Z,97900.22
2022-12-29T16:18:06.584Z,97902.72
2022-12-29T16:20:41.497Z,97901.75
2022-12-29T16:23:19.494Z,97898.03
2022-12-29T16:25:47.165Z,97907.06
2022-12-29T16:28:19.438Z,97909.47
2022-12-29T16:30:46.941Z,97907.91
2022-12-29T16:33:34.154Z,97908.84
2022-12-29T16:36:02.805Z,97908.22
2022-12-29T16:38:35.307Z,97909.69
2022-12-29T16:41:03.883Z,97910.56
2022-12-29T16:43:43.444Z,97914.56
2022-12-29T16:46:28.407Z,97907.28
2022-12-29T16:48:57.538Z,97909.88
2022-12-29T16:51:37.544Z,97907.50
2022-12-29T16:54:05.748Z,97912.66
2022-12-29T16:56:37.280Z,97906.66
2022-12-29T16:59:26.931Z,97903.31
2022-12-29T17:01:54.104Z,97903.19
2022-12-29T17:04:21.158Z,97912.78
2022-12-29T17:06:48.549Z,97925.97
2022-12-29T17:09:21.165Z,97923.34
2022-12-29T17:12:01.580Z,97928.00
2022-12-29T17:14:56.271Z,97935.78
2022-12-29T17:17:33.548Z,97934.34
2022-12-29T17:20:18.954Z,97946.19
2022-12-29T17:22:46.575Z,97951.47
2022-12-29T17:25:15.977Z,97939.97
2022-12-29T17:27:51.399Z,97933.50
2022-12-29T17:30:27.074Z,97942.34
2022-12-29T17:33:09.055Z,97940.91
2022-12-29T17:35:36.385Z,97937.44
2022-12-29T17:38:03.704Z,97948.09
2022-12-29T17:40:33.071Z,97949.88
2022-12-29T17:43:03.103Z,97946.41
2022-12-29T17:45:32.748Z,97945.59
2022-12-29T17:48:01.785Z,97951.69
2022-12-29T17:50:31.009Z,97954.56
2022-12-29T17:53:04.352Z,97955.63
2022-12-29T17:55:37.519Z,97961.88
2022-12-29T17:58:32.837Z,97957.31
2022-12-29T18:01:02.188Z,97960.56
2022-12-29T18:03:34.483Z,97957.78
2022-12-29T18:06:02.954Z,97944.75
2022-12-29T18:08:30.487Z,97936.72
2022-12-29T18:10:57.811Z,97946.06
2022-12-29T18:13:40.452Z,97948.81
2022-12-29T18:16:13.599Z,97952.53
2022-12-29T18:18:40.576Z,97960.81
2022-12-29T18:21:15.687Z,97959.81
2022-12-29T18:23:42.879Z,97957.09
2022-12-29T18:26:23.933Z,97956.94
2022-12-29T18:28:55.396Z,97959.22
2022-12-29T18:31:26.797Z,97963.44
2022-12-29T18:33:54.805Z,97966.53
2022-12-29T18:36:22.831Z,97958.97
2022-12-29T18:38:54.601Z,97963.78
2022-12-29T18:41:29.641Z,97967.97
2022-12-29T18:43:57.882Z,97958.66
2022-12-29T18:46:25.404Z,97957.91
2022-12-29T18:48:53.437Z,97960.19
2022-12-29T18:51:23.931Z,97973.34
2022-12-29T18:53:54.480Z,97967.59
2022-12-29T18:56:23.148Z,97971.91
2022-12-29T18:58:51.593Z,97965.94
2022-12-29T19:01:27.760Z,97970.47
2022-12-29T19:03:55.245Z,97980.53
2022-12-29T19:06:22.344Z,97970.94
2022-12-29T19:08:50.113Z,97968.91
2022-12-29T19:11:17.931Z,97972.00
2022-12-29T19:13:45.366Z,97968.41
2022-12-29T19:16:21.400Z,97975.47
2022-12-29T19:19:05.728Z,97968.28
2022-12-29T19:21:36.441Z,97970.69
2022-12-29T19:24:03.516Z,97966.00
2022-12-29T19:26:34.690Z,97971.38
2022-12-29T19:29:02.681Z,97982.00
2022-12-29T19:31:30.124Z,97988.59
2022-12-29T19:33:57.524Z,97989.06
2022-12-29T19:36:24.910Z,97982.81
2022-12-29T19:38:52.300Z,97984.00
2022-12-29T19:41:19.663Z,97977.81
2022-12-29T19:43:47.205Z,97975.50
2022-12-29T19:46:18.445Z,97977.66
2022-12-29T19:48:45.895Z,97971.56
2022-12-29T19:51:18.515Z,97977.03
2022-12-29T19:53:46.325Z,97978.59
2022-12-29T19:56:14.644Z,97984.31
2022-12-29T19:58:46.998Z,97973.56
2022-12-29T20:01:20.661Z,97983.00
2022-12-29T20:03:48.687Z,97988.59
2022-12-29T20:06:16.673Z,97989.09
2022-12-29T20:08:44.141Z,97988.28
2022-12-29T20:11:14.606Z,97990.31
2022-12-29T20:13:42.265Z,97998.94
2022-12-29T20:16:13.904Z,97998.53
2022-12-29T20:18:41.558Z,97997.81
2022-12-29T20:21:14.635Z,97996.13
2022-12-29T20:23:43.247Z,97989.91
2022-12-29T20:26:18.791Z,97996.13
2022-12-29T20:28:46.609Z,98001.00
2022-12-29T20:31:20.712Z,97994.91
2022-12-29T20:33:48.331Z,98003.50
2022-12-29T20:36:18.832Z,98008.41
2022-12-29T20:38:46.851Z,98009.47
2022-12-29T20:41:14.832Z,98007.91
2022-12-29T20:43:42.454Z,98008.72
2022-12-29T20:46:11.203Z,98013.47
2022-12-29T20:48:38.939Z,98018.09
2022-12-29T20:51:06.369Z,98013.91
2022-12-29T20:53:34.232Z,98016.31
2022-12-29T20:56:04.815Z,98018.09
2022-12-29T20:58:32.480Z,98022.44
2022-12-29T21:01:06.303Z,98030.19
2022-12-29T21:03:34.173Z,98043.66
2022-12-29T21:06:01.754Z,98039.06
2022-12-29T21:08:30.263Z,98039.28
2022-12-29T21:11:00.739Z,98048.28
2022-12-29T21:13:28.976Z,98054.59
2022-12-29T21:16:01.387Z,98048.00
2022-12-29T21:18:29.434Z,98054.00
2022-12-29T21:21:02.310Z,98049.06
2022-12-29T21:23:30.059Z,98057.28
2022-12-29T21:25:57.835Z,98064.84
2022-12-29T21:28:25.774Z,98066.09
2022-12-29T21:30:53.805Z,98060.84
2022-12-29T21:33:21.878Z,98052.44
2022-12-29T21:35:49.380Z,98049.94
2022-12-29T21:38:16.848Z,98060.66
2022-12-29T21:40:44.312Z,98053.72
2022-12-29T21:43:12.554Z,98054.88
2022-12-29T21:45:40.016Z,98053.13
2022-12-29T21:48:27.863Z,98051.63
2022-12-29T21:51:17.987Z,98048.19
2022-12-29T21:53:45.954Z,98049.63
2022-12-29T21:56:18.556Z,98040.81
2022-12-29T21:59:08.996Z,98047.84
2022-12-29T22:01:56.947Z,98055.75
2022-12-29T22:04:44.480Z,98057.63
2022-12-29T22:07:31.633Z,98057.50
2022-12-29T22:10:17.483Z,98060.78
2022-12-29T22:13:20.037Z,98063.00
2022-12-29T22:15:47.468Z,98052.88
2022-12-29T22:18:14.823Z,98066.13
2022-12-29T22:20:42.221Z,98055.75
2022-12-29T22:23:09.905Z,98039.84
2022-12-29T22:25:40.207Z,98038.03
2022-12-29T22:28:07.610Z,98055.75
2022-12-29T22:30:34.941Z,98068.25
2022-12-29T22:33:02.432Z,98080.88
2022-12-29T22:35:29.840Z,98090.88
2022-12-29T22:37:57.200Z,98095.16
2022-12-29T22:40:25.697Z,98094.84
2022-12-29T22:42:53.074Z,98113.38
2022-12-29T22:45:20.441Z,98110.53
2022-12-29T22:47:47.791Z,98111.69
2022-12-29T22:50:15.196Z,98111.16
2022-12-29T22:52:42.559Z,98122.41
2022-12-29T22:55:10.101Z,98122.19
2022-12-29T22:57:37.521Z,98136.59
2022-12-29T23:00:08.629Z,98118.94
2022-12-29T23:02:36.208Z,98123.34
2022-12-29T23:05:05.324Z,98129.34
2022-12-29T23:07:34.420Z,98139.53
2022-12-29T23:10:02.351Z,98147.13
2022-12-29T23:12:31.173Z,98145.63
2022-12-29T23:14:58.524Z,98153.72
2022-12-29T23:17:25.952Z,98144.59
2022-12-29T23:19:53.501Z,98152.16
2022-12-29T23:22:20.980Z,98149.94
2022-12-29T23:24:48.307Z,98152.25
2022-12-29T23:27:15.788Z,98156.66
2022-12-29T23:29:43.103Z,98155.84
2022-12-29T23:32:10.729Z,98154.03
2022-12-29T23:34:38.151Z,98156.44
2022-12-29T23:37:05.589Z,98170.63
2022-12-29T23:39:32.904Z,98175.06
2022-12-29T23:42:00.325Z,98177.78
2022-12-29T23:44:27.687Z,98176.31
2022-12-29T23:46:55.063Z,98177.16
2022-12-29T23:49:22.987Z,98180.75
2022-12-29T23:51:50.350Z,98182.63
2022-12-29T23:54:17.734Z,98183.97
2022-12-29T23:56:45.091Z,98180.63
2022-12-29T23:59:12.413Z,98187.53
